sensor_id;sensor_type;location;lat;lon;timestamp;P1;durP1;ratioP1;P2;durP2;ratioP2
81807;SDS011;71241;13.676;100.700;2024-03-02T00:02:25;15.98;;;14.10;;
81807;SDS011;71241;13.676;100.700;2024-03-02T00:04:57;16.23;;;13.13;;
81807;SDS011;71241;13.676;100.700;2024-03-02T00:07:28;13.02;;;11.55;;
81807;SDS011;71241;13.676;100.700;2024-03-02T00:09:59;14.00;;;12.45;;
81807;SDS011;71241;13.676;100.700;2024-03-02T00:12:29;14.63;;;11.77;;
81807;SDS011;71241;13.676;100.700;2024-03-02T00:15:02;17.52;;;14.15;;
81807;SDS011;71241;13.676;100.700;2024-03-02T00:17:34;15.02;;;12.13;;
81807;SDS011;71241;13.676;100.700;2024-03-02T00:20:05;14.07;;;11.32;;
81807;SDS011;71241;13.676;100.700;2024-03-02T00:22:39;16.23;;;11.68;;
81807;SDS011;71241;13.676;100.700;2024-03-02T00:25:10;14.77;;;13.18;;
81807;SDS011;71241;13.676;100.700;2024-03-02T00:27:41;16.17;;;14.43;;
81807;SDS011;71241;13.676;100.700;2024-03-02T00:30:17;18.13;;;10.88;;
81807;SDS011;71241;13.676;100.700;2024-03-02T00:33:10;17.80;;;11.65;;
81807;SDS011;71241;13.676;100.700;2024-03-02T00:35:40;14.50;;;11.85;;
81807;SDS011;71241;13.676;100.700;2024-03-02T00:38:14;16.70;;;11.80;;
81807;SDS011;71241;13.676;100.700;2024-03-02T00:40:45;16.50;;;11.57;;
81807;SDS011;71241;13.676;100.700;2024-03-02T00:46:20;13.93;;;11.55;;
81807;SDS011;71241;13.676;100.700;2024-03-02T00:48:56;15.85;;;11.70;;
81807;SDS011;71241;13.676;100.700;2024-03-02T00:51:47;15.88;;;11.95;;
81807;SDS011;71241;13.676;100.700;2024-03-02T00:54:19;19.33;;;11.85;;
81807;SDS011;71241;13.676;100.700;2024-03-02T00:56:51;14.65;;;11.45;;
81807;SDS011;71241;13.676;100.700;2024-03-02T00:59:24;14.90;;;10.80;;
81807;SDS011;71241;13.676;100.700;2024-03-02T01:01:56;17.75;;;11.15;;
81807;SDS011;71241;13.676;100.700;2024-03-02T01:04:27;13.98;;;10.32;;
81807;SDS011;71241;13.676;100.700;2024-03-02T01:06:59;18.38;;;10.90;;
81807;SDS011;71241;13.676;100.700;2024-03-02T01:09:29;15.02;;;10.38;;
81807;SDS011;71241;13.676;100.700;2024-03-02T01:12:03;13.27;;;10.20;;
81807;SDS011;71241;13.676;100.700;2024-03-02T01:14:34;15.32;;;10.43;;
81807;SDS011;71241;13.676;100.700;2024-03-02T01:17:06;12.63;;;10.02;;
81807;SDS011;71241;13.676;100.700;2024-03-02T01:19:36;12.73;;;10.52;;
81807;SDS011;71241;13.676;100.700;2024-03-02T01:22:08;12.75;;;10.43;;
81807;SDS011;71241;13.676;100.700;2024-03-02T01:24:39;17.90;;;11.18;;
81807;SDS011;71241;13.676;100.700;2024-03-02T01:27:10;14.57;;;10.77;;
81807;SDS011;71241;13.676;100.700;2024-03-02T01:29:40;12.93;;;10.55;;
81807;SDS011;71241;13.676;100.700;2024-03-02T01:32:12;14.27;;;11.35;;
81807;SDS011;71241;13.676;100.700;2024-03-02T01:34:43;13.60;;;11.07;;
81807;SDS011;71241;13.676;100.700;2024-03-02T01:37:13;15.02;;;10.45;;
81807;SDS011;71241;13.676;100.700;2024-03-02T01:39:43;14.50;;;11.10;;
81807;SDS011;71241;13.676;100.700;2024-03-02T01:42:14;19.25;;;11.20;;
81807;SDS011;71241;13.676;100.700;2024-03-02T01:44:45;14.00;;;10.82;;
81807;SDS011;71241;13.676;100.700;2024-03-02T01:47:17;14.05;;;10.13;;
81807;SDS011;71241;13.676;100.700;2024-03-02T01:49:48;14.13;;;11.02;;
81807;SDS011;71241;13.676;100.700;2024-03-02T01:52:19;11.77;;;10.05;;
81807;SDS011;71241;13.676;100.700;2024-03-02T01:54:50;14.38;;;11.55;;
81807;SDS011;71241;13.676;100.700;2024-03-02T01:57:21;14.60;;;11.80;;
81807;SDS011;71241;13.676;100.700;2024-03-02T01:59:51;14.38;;;11.23;;
81807;SDS011;71241;13.676;100.700;2024-03-02T02:02:24;13.45;;;11.77;;
81807;SDS011;71241;13.676;100.700;2024-03-02T02:04:55;12.82;;;11.27;;
81807;SDS011;71241;13.676;100.700;2024-03-02T02:07:26;15.00;;;10.52;;
81807;SDS011;71241;13.676;100.700;2024-03-02T02:09:56;15.73;;;10.93;;
81807;SDS011;71241;13.676;100.700;2024-03-02T02:12:27;16.10;;;14.10;;
81807;SDS011;71241;13.676;100.700;2024-03-02T02:14:58;17.17;;;15.45;;
81807;SDS011;71241;13.676;100.700;2024-03-02T02:17:31;15.70;;;13.35;;
81807;SDS011;71241;13.676;100.700;2024-03-02T02:20:01;17.48;;;13.57;;
81807;SDS011;71241;13.676;100.700;2024-03-02T02:22:36;13.63;;;10.35;;
81807;SDS011;71241;13.676;100.700;2024-03-02T02:25:06;14.80;;;13.02;;
81807;SDS011;71241;13.676;100.700;2024-03-02T02:27:37;16.17;;;12.25;;
81807;SDS011;71241;13.676;100.700;2024-03-02T02:30:08;16.02;;;13.32;;
81807;SDS011;71241;13.676;100.700;2024-03-02T02:32:39;15.48;;;13.65;;
81807;SDS011;71241;13.676;100.700;2024-03-02T02:35:12;14.93;;;11.95;;
81807;SDS011;71241;13.676;100.700;2024-03-02T02:37:45;18.02;;;13.70;;
81807;SDS011;71241;13.676;100.700;2024-03-02T02:40:16;13.40;;;12.00;;
81807;SDS011;71241;13.676;100.700;2024-03-02T02:42:48;16.38;;;14.52;;
81807;SDS011;71241;13.676;100.700;2024-03-02T02:45:18;17.23;;;11.43;;
81807;SDS011;71241;13.676;100.700;2024-03-02T02:47:49;15.15;;;12.00;;
81807;SDS011;71241;13.676;100.700;2024-03-02T02:50:20;18.40;;;16.45;;
81807;SDS011;71241;13.676;100.700;2024-03-02T02:52:52;15.18;;;11.15;;
81807;SDS011;71241;13.676;100.700;2024-03-02T02:55:23;17.35;;;12.43;;
81807;SDS011;71241;13.676;100.700;2024-03-02T02:57:53;16.40;;;12.98;;
81807;SDS011;71241;13.676;100.700;2024-03-02T03:00:24;15.43;;;12.35;;
81807;SDS011;71241;13.676;100.700;2024-03-02T03:02:57;14.85;;;13.30;;
81807;SDS011;71241;13.676;100.700;2024-03-02T03:05:27;15.93;;;13.75;;
81807;SDS011;71241;13.676;100.700;2024-03-02T03:08:00;15.75;;;13.13;;
81807;SDS011;71241;13.676;100.700;2024-03-02T03:10:33;16.00;;;13.18;;
81807;SDS011;71241;13.676;100.700;2024-03-02T03:13:04;16.63;;;12.45;;
81807;SDS011;71241;13.676;100.700;2024-03-02T03:15:37;13.45;;;12.05;;
81807;SDS011;71241;13.676;100.700;2024-03-02T03:18:07;14.57;;;12.48;;
81807;SDS011;71241;13.676;100.700;2024-03-02T03:20:39;14.43;;;12.90;;
81807;SDS011;71241;13.676;100.700;2024-03-02T03:23:11;17.10;;;14.32;;
81807;SDS011;71241;13.676;100.700;2024-03-02T03:25:46;20.23;;;13.65;;
81807;SDS011;71241;13.676;100.700;2024-03-02T03:28:16;16.73;;;14.70;;
81807;SDS011;71241;13.676;100.700;2024-03-02T03:30:47;15.73;;;13.98;;
81807;SDS011;71241;13.676;100.700;2024-03-02T03:33:17;14.82;;;13.15;;
81807;SDS011;71241;13.676;100.700;2024-03-02T03:35:48;15.95;;;14.20;;
81807;SDS011;71241;13.676;100.700;2024-03-02T03:38:20;18.92;;;14.38;;
81807;SDS011;71241;13.676;100.700;2024-03-02T03:40:50;16.70;;;15.10;;
81807;SDS011;71241;13.676;100.700;2024-03-02T03:43:21;16.85;;;14.75;;
81807;SDS011;71241;13.676;100.700;2024-03-02T03:45:51;19.92;;;18.02;;
81807;SDS011;71241;13.676;100.700;2024-03-02T03:48:22;19.52;;;17.48;;
81807;SDS011;71241;13.676;100.700;2024-03-02T03:50:53;17.50;;;15.68;;
81807;SDS011;71241;13.676;100.700;2024-03-02T03:53:25;19.40;;;17.38;;
81807;SDS011;71241;13.676;100.700;2024-03-02T03:55:56;20.90;;;18.80;;
81807;SDS011;71241;13.676;100.700;2024-03-02T03:58:26;19.60;;;17.90;;
81807;SDS011;71241;13.676;100.700;2024-03-02T04:00:57;18.95;;;17.05;;
81807;SDS011;71241;13.676;100.700;2024-03-02T04:03:29;16.52;;;14.93;;
81807;SDS011;71241;13.676;100.700;2024-03-02T04:06:00;14.23;;;12.90;;
81807;SDS011;71241;13.676;100.700;2024-03-02T04:08:34;17.13;;;13.40;;
81807;SDS011;71241;13.676;100.700;2024-03-02T04:11:06;17.40;;;13.32;;
81807;SDS011;71241;13.676;100.700;2024-03-02T04:13:37;16.00;;;13.43;;
81807;SDS011;71241;13.676;100.700;2024-03-02T04:16:08;16.02;;;14.32;;
81807;SDS011;71241;13.676;100.700;2024-03-02T04:18:41;17.38;;;14.63;;
81807;SDS011;71241;13.676;100.700;2024-03-02T04:21:11;19.08;;;15.88;;
81807;SDS011;71241;13.676;100.700;2024-03-02T04:23:43;17.17;;;14.35;;
81807;SDS011;71241;13.676;100.700;2024-03-02T04:26:14;18.95;;;14.13;;
81807;SDS011;71241;13.676;100.700;2024-03-02T04:28:48;16.25;;;13.90;;
81807;SDS011;71241;13.676;100.700;2024-03-02T04:31:21;16.42;;;14.85;;
81807;SDS011;71241;13.676;100.700;2024-03-02T04:33:54;16.63;;;14.93;;
81807;SDS011;71241;13.676;100.700;2024-03-02T04:36:25;16.00;;;14.35;;
81807;SDS011;71241;13.676;100.700;2024-03-02T04:38:57;16.63;;;14.57;;
81807;SDS011;71241;13.676;100.700;2024-03-02T04:41:27;15.48;;;13.77;;
81807;SDS011;71241;13.676;100.700;2024-03-02T04:43:57;18.40;;;16.45;;
81807;SDS011;71241;13.676;100.700;2024-03-02T04:46:28;17.33;;;15.32;;
81807;SDS011;71241;13.676;100.700;2024-03-02T04:48:58;18.92;;;15.95;;
81807;SDS011;71241;13.676;100.700;2024-03-02T04:51:29;19.85;;;16.25;;
81807;SDS011;71241;13.676;100.700;2024-03-02T04:54:01;16.83;;;14.55;;
81807;SDS011;71241;13.676;100.700;2024-03-02T04:56:32;22.45;;;20.20;;
81807;SDS011;71241;13.676;100.700;2024-03-02T04:59:13;22.35;;;20.05;;
81807;SDS011;71241;13.676;100.700;2024-03-02T05:01:43;20.60;;;18.73;;
81807;SDS011;71241;13.676;100.700;2024-03-02T05:04:16;19.35;;;17.65;;
81807;SDS011;71241;13.676;100.700;2024-03-02T05:06:47;21.48;;;19.52;;
81807;SDS011;71241;13.676;100.700;2024-03-02T05:09:23;19.38;;;17.58;;
81807;SDS011;71241;13.676;100.700;2024-03-02T05:11:53;19.35;;;17.50;;
81807;SDS011;71241;13.676;100.700;2024-03-02T05:14:38;21.75;;;19.67;;
81807;SDS011;71241;13.676;100.700;2024-03-02T05:17:09;19.73;;;17.90;;
81807;SDS011;71241;13.676;100.700;2024-03-02T05:19:40;19.30;;;17.38;;
81807;SDS011;71241;13.676;100.700;2024-03-02T05:22:10;20.25;;;18.38;;
81807;SDS011;71241;13.676;100.700;2024-03-02T05:24:42;19.35;;;17.52;;
81807;SDS011;71241;13.676;100.700;2024-03-02T05:27:13;22.08;;;20.10;;
81807;SDS011;71241;13.676;100.700;2024-03-02T05:29:43;19.55;;;17.75;;
81807;SDS011;71241;13.676;100.700;2024-03-02T05:32:14;19.52;;;17.55;;
81807;SDS011;71241;13.676;100.700;2024-03-02T05:34:45;21.00;;;19.13;;
81807;SDS011;71241;13.676;100.700;2024-03-02T05:37:17;19.30;;;17.33;;
81807;SDS011;71241;13.676;100.700;2024-03-02T05:39:52;19.60;;;17.85;;
81807;SDS011;71241;13.676;100.700;2024-03-02T05:47:23;21.20;;;19.27;;
81807;SDS011;71241;13.676;100.700;2024-03-02T05:49:53;21.45;;;19.33;;
81807;SDS011;71241;13.676;100.700;2024-03-02T05:52:24;20.27;;;17.95;;
81807;SDS011;71241;13.676;100.700;2024-03-02T05:54:56;19.27;;;17.27;;
81807;SDS011;71241;13.676;100.700;2024-03-02T06:00:08;22.02;;;20.02;;
81807;SDS011;71241;13.676;100.700;2024-03-02T06:02:40;23.73;;;21.63;;
81807;SDS011;71241;13.676;100.700;2024-03-02T06:05:12;21.25;;;19.55;;
81807;SDS011;71241;13.676;100.700;2024-03-02T06:07:39;20.98;;;17.35;;
81807;SDS011;71241;13.676;100.700;2024-03-02T06:10:12;20.02;;;18.33;;
81807;SDS011;71241;13.676;100.700;2024-03-02T06:13:00;21.30;;;19.33;;
81807;SDS011;71241;13.676;100.700;2024-03-02T06:15:30;20.50;;;18.60;;
81807;SDS011;71241;13.676;100.700;2024-03-02T06:18:02;19.00;;;16.67;;
81807;SDS011;71241;13.676;100.700;2024-03-02T06:20:33;19.20;;;17.45;;
81807;SDS011;71241;13.676;100.700;2024-03-02T06:23:04;22.70;;;17.73;;
81807;SDS011;71241;13.676;100.700;2024-03-02T06:25:34;20.60;;;18.90;;
81807;SDS011;71241;13.676;100.700;2024-03-02T06:28:06;19.30;;;17.60;;
81807;SDS011;71241;13.676;100.700;2024-03-02T06:30:37;18.88;;;16.80;;
81807;SDS011;71241;13.676;100.700;2024-03-02T06:33:07;17.85;;;15.60;;
81807;SDS011;71241;13.676;100.700;2024-03-02T06:35:38;14.80;;;13.30;;
81807;SDS011;71241;13.676;100.700;2024-03-02T06:38:08;18.90;;;17.23;;
81807;SDS011;71241;13.676;100.700;2024-03-02T06:40:39;15.77;;;13.23;;
81807;SDS011;71241;13.676;100.700;2024-03-02T06:43:11;14.63;;;13.15;;
81807;SDS011;71241;13.676;100.700;2024-03-02T06:45:41;16.45;;;13.75;;
81807;SDS011;71241;13.676;100.700;2024-03-02T06:48:12;18.73;;;14.82;;
81807;SDS011;71241;13.676;100.700;2024-03-02T06:50:47;18.25;;;16.52;;
81807;SDS011;71241;13.676;100.700;2024-03-02T06:53:18;16.27;;;13.32;;
81807;SDS011;71241;13.676;100.700;2024-03-02T06:55:49;19.55;;;13.85;;
81807;SDS011;71241;13.676;100.700;2024-03-02T06:58:21;15.30;;;13.57;;
81807;SDS011;71241;13.676;100.700;2024-03-02T07:00:51;18.60;;;16.52;;
81807;SDS011;71241;13.676;100.700;2024-03-02T07:03:22;18.02;;;16.17;;
81807;SDS011;71241;13.676;100.700;2024-03-02T07:05:53;21.60;;;19.85;;
81807;SDS011;71241;13.676;100.700;2024-03-02T07:08:23;19.48;;;17.63;;
81807;SDS011;71241;13.676;100.700;2024-03-02T07:10:54;19.10;;;17.42;;
81807;SDS011;71241;13.676;100.700;2024-03-02T07:13:27;27.48;;;25.13;;
81807;SDS011;71241;13.676;100.700;2024-03-02T07:15:58;20.38;;;17.38;;
81807;SDS011;71241;13.676;100.700;2024-03-02T07:18:40;18.42;;;16.50;;
81807;SDS011;71241;13.676;100.700;2024-03-02T07:21:11;19.73;;;17.95;;
81807;SDS011;71241;13.676;100.700;2024-03-02T07:23:41;19.45;;;17.48;;
81807;SDS011;71241;13.676;100.700;2024-03-02T07:26:12;20.83;;;18.92;;
81807;SDS011;71241;13.676;100.700;2024-03-02T07:28:48;19.42;;;17.90;;
81807;SDS011;71241;13.676;100.700;2024-03-02T07:31:18;17.67;;;15.98;;
81807;SDS011;71241;13.676;100.700;2024-03-02T07:33:49;19.77;;;18.08;;
81807;SDS011;71241;13.676;100.700;2024-03-02T07:36:20;19.63;;;17.80;;
81807;SDS011;71241;13.676;100.700;2024-03-02T07:38:50;21.23;;;19.35;;
81807;SDS011;71241;13.676;100.700;2024-03-02T07:41:23;20.50;;;18.52;;
81807;SDS011;71241;13.676;100.700;2024-03-02T07:43:56;18.42;;;16.20;;
81807;SDS011;71241;13.676;100.700;2024-03-02T07:46:26;18.83;;;16.85;;
81807;SDS011;71241;13.676;100.700;2024-03-02T07:48:56;17.77;;;14.93;;
81807;SDS011;71241;13.676;100.700;2024-03-02T07:51:27;17.88;;;16.17;;
81807;SDS011;71241;13.676;100.700;2024-03-02T07:53:57;15.73;;;14.43;;
81807;SDS011;71241;13.676;100.700;2024-03-02T07:56:28;18.80;;;17.13;;
81807;SDS011;71241;13.676;100.700;2024-03-02T07:59:00;19.92;;;13.68;;
81807;SDS011;71241;13.676;100.700;2024-03-02T08:01:31;18.23;;;16.33;;
81807;SDS011;71241;13.676;100.700;2024-03-02T08:04:02;20.60;;;18.52;;
81807;SDS011;71241;13.676;100.700;2024-03-02T08:06:34;19.73;;;18.05;;
81807;SDS011;71241;13.676;100.700;2024-03-02T08:09:05;20.17;;;18.55;;
81807;SDS011;71241;13.676;100.700;2024-03-02T08:11:39;22.17;;;20.25;;
81807;SDS011;71241;13.676;100.700;2024-03-02T08:14:12;21.08;;;19.02;;
81807;SDS011;71241;13.676;100.700;2024-03-02T08:16:42;21.98;;;19.92;;
81807;SDS011;71241;13.676;100.700;2024-03-02T08:19:16;19.25;;;17.38;;
81807;SDS011;71241;13.676;100.700;2024-03-02T08:21:49;24.27;;;21.98;;
81807;SDS011;71241;13.676;100.700;2024-03-02T08:24:20;23.08;;;21.05;;
81807;SDS011;71241;13.676;100.700;2024-03-02T08:26:51;17.40;;;15.70;;
81807;SDS011;71241;13.676;100.700;2024-03-02T08:29:23;17.65;;;15.88;;
81807;SDS011;71241;13.676;100.700;2024-03-02T08:34:23;18.90;;;15.10;;
81807;SDS011;71241;13.676;100.700;2024-03-02T08:36:54;18.73;;;16.88;;
81807;SDS011;71241;13.676;100.700;2024-03-02T08:39:24;17.13;;;15.20;;
81807;SDS011;71241;13.676;100.700;2024-03-02T08:41:55;18.92;;;17.42;;
81807;SDS011;71241;13.676;100.700;2024-03-02T08:44:27;17.98;;;16.17;;
81807;SDS011;71241;13.676;100.700;2024-03-02T08:46:58;17.90;;;16.17;;
81807;SDS011;71241;13.676;100.700;2024-03-02T08:49:28;17.75;;;16.00;;
81807;SDS011;71241;13.676;100.700;2024-03-02T08:51:59;17.40;;;15.57;;
81807;SDS011;71241;13.676;100.700;2024-03-02T08:54:29;18.23;;;15.73;;
81807;SDS011;71241;13.676;100.700;2024-03-02T08:57:00;17.83;;;16.17;;
81807;SDS011;71241;13.676;100.700;2024-03-02T08:59:32;17.27;;;15.68;;
81807;SDS011;71241;13.676;100.700;2024-03-02T09:02:03;15.75;;;14.23;;
81807;SDS011;71241;13.676;100.700;2024-03-02T09:04:34;16.85;;;15.05;;
81807;SDS011;71241;13.676;100.700;2024-03-02T09:07:05;16.25;;;14.32;;
81807;SDS011;71241;13.676;100.700;2024-03-02T09:09:36;15.55;;;13.55;;
81807;SDS011;71241;13.676;100.700;2024-03-02T09:12:08;16.30;;;14.65;;
81807;SDS011;71241;13.676;100.700;2024-03-02T09:14:44;16.95;;;15.35;;
81807;SDS011;71241;13.676;100.700;2024-03-02T09:17:16;17.90;;;16.20;;
81807;SDS011;71241;13.676;100.700;2024-03-02T09:19:46;17.63;;;14.60;;
81807;SDS011;71241;13.676;100.700;2024-03-02T09:22:17;17.02;;;15.30;;
81807;SDS011;71241;13.676;100.700;2024-03-02T09:24:49;17.95;;;16.23;;
81807;SDS011;71241;13.676;100.700;2024-03-02T09:27:20;17.38;;;15.90;;
81807;SDS011;71241;13.676;100.700;2024-03-02T09:29:53;21.08;;;16.05;;
81807;SDS011;71241;13.676;100.700;2024-03-02T09:32:23;17.40;;;15.85;;
81807;SDS011;71241;13.676;100.700;2024-03-02T09:34:54;16.08;;;14.48;;
81807;SDS011;71241;13.676;100.700;2024-03-02T09:37:24;18.17;;;13.80;;
81807;SDS011;71241;13.676;100.700;2024-03-02T09:39:56;17.00;;;15.23;;
81807;SDS011;71241;13.676;100.700;2024-03-02T09:42:37;17.17;;;15.52;;
81807;SDS011;71241;13.676;100.700;2024-03-02T09:45:09;17.58;;;15.73;;
81807;SDS011;71241;13.676;100.700;2024-03-02T09:47:40;16.10;;;14.70;;
81807;SDS011;71241;13.676;100.700;2024-03-02T09:50:10;18.20;;;15.60;;
81807;SDS011;71241;13.676;100.700;2024-03-02T09:52:41;17.02;;;15.30;;
81807;SDS011;71241;13.676;100.700;2024-03-02T09:55:12;18.35;;;16.67;;
81807;SDS011;71241;13.676;100.700;2024-03-02T09:57:45;20.70;;;17.42;;
81807;SDS011;71241;13.676;100.700;2024-03-02T10:00:19;17.45;;;15.77;;
81807;SDS011;71241;13.676;100.700;2024-03-02T10:02:49;16.92;;;15.35;;
81807;SDS011;71241;13.676;100.700;2024-03-02T10:05:23;18.65;;;16.48;;
81807;SDS011;71241;13.676;100.700;2024-03-02T10:07:59;19.65;;;17.80;;
81807;SDS011;71241;13.676;100.700;2024-03-02T10:10:37;19.70;;;18.05;;
81807;SDS011;71241;13.676;100.700;2024-03-02T10:13:12;20.85;;;19.23;;
81807;SDS011;71241;13.676;100.700;2024-03-02T10:15:47;19.27;;;16.77;;
81807;SDS011;71241;13.676;100.700;2024-03-02T10:18:26;18.77;;;17.15;;
81807;SDS011;71241;13.676;100.700;2024-03-02T10:21:05;19.38;;;17.48;;
81807;SDS011;71241;13.676;100.700;2024-03-02T10:23:44;20.75;;;18.67;;
81807;SDS011;71241;13.676;100.700;2024-03-02T10:26:16;20.92;;;19.02;;
81807;SDS011;71241;13.676;100.700;2024-03-02T10:28:48;19.80;;;17.67;;
81807;SDS011;71241;13.676;100.700;2024-03-02T10:31:22;18.25;;;16.55;;
81807;SDS011;71241;13.676;100.700;2024-03-02T10:33:57;21.95;;;19.98;;
81807;SDS011;71241;13.676;100.700;2024-03-02T10:36:28;19.45;;;17.50;;
81807;SDS011;71241;13.676;100.700;2024-03-02T10:38:59;19.48;;;17.70;;
81807;SDS011;71241;13.676;100.700;2024-03-02T10:41:29;23.25;;;20.50;;
81807;SDS011;71241;13.676;100.700;2024-03-02T10:44:02;20.02;;;15.65;;
81807;SDS011;71241;13.676;100.700;2024-03-02T10:46:36;15.63;;;13.95;;
81807;SDS011;71241;13.676;100.700;2024-03-02T10:49:06;17.25;;;14.50;;
81807;SDS011;71241;13.676;100.700;2024-03-02T10:51:37;21.52;;;14.68;;
81807;SDS011;71241;13.676;100.700;2024-03-02T10:54:08;16.70;;;14.00;;
81807;SDS011;71241;13.676;100.700;2024-03-02T10:56:39;15.40;;;13.13;;
81807;SDS011;71241;13.676;100.700;2024-03-02T10:59:14;21.85;;;13.50;;
81807;SDS011;71241;13.676;100.700;2024-03-02T11:01:51;17.65;;;14.35;;
81807;SDS011;71241;13.676;100.700;2024-03-02T11:04:30;21.13;;;14.40;;
81807;SDS011;71241;13.676;100.700;2024-03-02T11:07:02;16.60;;;13.40;;
81807;SDS011;71241;13.676;100.700;2024-03-02T11:09:34;17.33;;;15.38;;
81807;SDS011;71241;13.676;100.700;2024-03-02T11:12:09;16.50;;;13.35;;
81807;SDS011;71241;13.676;100.700;2024-03-02T11:14:43;17.73;;;14.73;;
81807;SDS011;71241;13.676;100.700;2024-03-02T11:17:16;18.13;;;15.18;;
81807;SDS011;71241;13.676;100.700;2024-03-02T11:19:48;16.42;;;13.57;;
81807;SDS011;71241;13.676;100.700;2024-03-02T11:22:19;15.02;;;12.65;;
81807;SDS011;71241;13.676;100.700;2024-03-02T11:24:50;17.38;;;13.80;;
81807;SDS011;71241;13.676;100.700;2024-03-02T11:30:51;14.48;;;12.57;;
81807;SDS011;71241;13.676;100.700;2024-03-02T11:33:29;14.40;;;12.85;;
81807;SDS011;71241;13.676;100.700;2024-03-02T11:36:00;13.88;;;12.38;;
81807;SDS011;71241;13.676;100.700;2024-03-02T11:38:31;13.15;;;11.43;;
81807;SDS011;71241;13.676;100.700;2024-03-02T11:41:02;16.60;;;13.43;;
81807;SDS011;71241;13.676;100.700;2024-03-02T11:43:39;17.15;;;13.38;;
81807;SDS011;71241;13.676;100.700;2024-03-02T11:46:10;15.32;;;13.07;;
81807;SDS011;71241;13.676;100.700;2024-03-02T11:48:43;15.65;;;12.77;;
81807;SDS011;71241;13.676;100.700;2024-03-02T11:51:14;15.68;;;12.65;;
81807;SDS011;71241;13.676;100.700;2024-03-02T11:53:44;14.60;;;12.90;;
81807;SDS011;71241;13.676;100.700;2024-03-02T11:56:15;14.77;;;13.10;;
81807;SDS011;71241;13.676;100.700;2024-03-02T11:58:45;15.77;;;13.82;;
81807;SDS011;71241;13.676;100.700;2024-03-02T12:01:16;21.60;;;15.55;;
81807;SDS011;71241;13.676;100.700;2024-03-02T12:03:49;17.23;;;13.50;;
81807;SDS011;71241;13.676;100.700;2024-03-02T12:06:19;21.73;;;14.95;;
81807;SDS011;71241;13.676;100.700;2024-03-02T12:08:52;19.95;;;15.82;;
81807;SDS011;71241;13.676;100.700;2024-03-02T12:11:24;20.20;;;18.17;;
81807;SDS011;71241;13.676;100.700;2024-03-02T12:13:55;18.40;;;16.60;;
81807;SDS011;71241;13.676;100.700;2024-03-02T12:16:27;17.85;;;14.48;;
81807;SDS011;71241;13.676;100.700;2024-03-02T12:19:03;22.35;;;16.40;;
81807;SDS011;71241;13.676;100.700;2024-03-02T12:21:34;20.42;;;18.25;;
81807;SDS011;71241;13.676;100.700;2024-03-02T12:24:06;21.77;;;17.85;;
81807;SDS011;71241;13.676;100.700;2024-03-02T12:26:37;20.48;;;18.40;;
81807;SDS011;71241;13.676;100.700;2024-03-02T12:29:10;18.13;;;16.20;;
81807;SDS011;71241;13.676;100.700;2024-03-02T12:31:40;22.38;;;18.52;;
81807;SDS011;71241;13.676;100.700;2024-03-02T12:34:16;21.50;;;18.42;;
81807;SDS011;71241;13.676;100.700;2024-03-02T12:36:47;21.67;;;18.38;;
81807;SDS011;71241;13.676;100.700;2024-03-02T12:39:22;22.75;;;19.48;;
81807;SDS011;71241;13.676;100.700;2024-03-02T12:41:53;28.63;;;21.73;;
81807;SDS011;71241;13.676;100.700;2024-03-02T12:44:24;22.25;;;19.50;;
81807;SDS011;71241;13.676;100.700;2024-03-02T12:46:54;24.92;;;20.52;;
81807;SDS011;71241;13.676;100.700;2024-03-02T12:49:30;20.55;;;18.35;;
81807;SDS011;71241;13.676;100.700;2024-03-02T12:52:01;28.38;;;25.70;;
81807;SDS011;71241;13.676;100.700;2024-03-02T12:54:32;23.73;;;21.27;;
81807;SDS011;71241;13.676;100.700;2024-03-02T12:57:03;22.20;;;19.98;;
81807;SDS011;71241;13.676;100.700;2024-03-02T12:59:33;21.50;;;19.42;;
81807;SDS011;71241;13.676;100.700;2024-03-02T13:02:06;24.02;;;19.42;;
81807;SDS011;71241;13.676;100.700;2024-03-02T13:04:38;21.10;;;18.90;;
81807;SDS011;71241;13.676;100.700;2024-03-02T13:07:11;27.52;;;19.90;;
81807;SDS011;71241;13.676;100.700;2024-03-02T13:09:42;24.08;;;20.15;;
81807;SDS011;71241;13.676;100.700;2024-03-02T13:12:15;25.45;;;21.88;;
81807;SDS011;71241;13.676;100.700;2024-03-02T13:14:48;22.13;;;18.38;;
81807;SDS011;71241;13.676;100.700;2024-03-02T13:17:20;22.52;;;19.90;;
81807;SDS011;71241;13.676;100.700;2024-03-02T13:19:53;23.50;;;18.88;;
81807;SDS011;71241;13.676;100.700;2024-03-02T13:22:25;21.33;;;17.77;;
81807;SDS011;71241;13.676;100.700;2024-03-02T13:24:56;24.95;;;18.25;;
81807;SDS011;71241;13.676;100.700;2024-03-02T13:29:58;26.52;;;19.88;;
81807;SDS011;71241;13.676;100.700;2024-03-02T13:32:29;23.23;;;17.83;;
81807;SDS011;71241;13.676;100.700;2024-03-02T13:35:02;24.95;;;19.60;;
81807;SDS011;71241;13.676;100.700;2024-03-02T13:37:33;29.30;;;21.08;;
81807;SDS011;71241;13.676;100.700;2024-03-02T13:40:07;23.35;;;20.60;;
81807;SDS011;71241;13.676;100.700;2024-03-02T13:42:42;25.20;;;21.83;;
81807;SDS011;71241;13.676;100.700;2024-03-02T13:45:13;23.73;;;21.23;;
81807;SDS011;71241;13.676;100.700;2024-03-02T13:47:45;26.80;;;21.40;;
81807;SDS011;71241;13.676;100.700;2024-03-02T13:50:18;25.90;;;21.13;;
81807;SDS011;71241;13.676;100.700;2024-03-02T13:52:49;25.60;;;21.58;;
81807;SDS011;71241;13.676;100.700;2024-03-02T13:55:19;24.00;;;21.17;;
81807;SDS011;71241;13.676;100.700;2024-03-02T13:57:50;28.52;;;21.70;;
81807;SDS011;71241;13.676;100.700;2024-03-02T14:00:21;29.48;;;22.23;;
81807;SDS011;71241;13.676;100.700;2024-03-02T14:02:52;27.05;;;20.65;;
81807;SDS011;71241;13.676;100.700;2024-03-02T14:05:24;22.83;;;20.02;;
81807;SDS011;71241;13.676;100.700;2024-03-02T14:07:55;28.95;;;21.00;;
81807;SDS011;71241;13.676;100.700;2024-03-02T14:10:26;27.42;;;20.08;;
81807;SDS011;71241;13.676;100.700;2024-03-02T14:12:57;25.77;;;20.65;;
81807;SDS011;71241;13.676;100.700;2024-03-02T14:15:28;28.13;;;21.25;;
81807;SDS011;71241;13.676;100.700;2024-03-02T14:17:59;28.05;;;22.13;;
81807;SDS011;71241;13.676;100.700;2024-03-02T14:20:32;25.85;;;20.38;;
81807;SDS011;71241;13.676;100.700;2024-03-02T14:23:05;25.42;;;21.15;;
81807;SDS011;71241;13.676;100.700;2024-03-02T14:25:36;24.92;;;21.15;;
81807;SDS011;71241;13.676;100.700;2024-03-02T14:28:06;29.13;;;19.92;;
81807;SDS011;71241;13.676;100.700;2024-03-02T14:30:59;28.90;;;20.85;;
81807;SDS011;71241;13.676;100.700;2024-03-02T14:33:30;25.98;;;20.10;;
81807;SDS011;71241;13.676;100.700;2024-03-02T14:36:03;24.90;;;21.25;;
81807;SDS011;71241;13.676;100.700;2024-03-02T14:38:34;27.33;;;21.52;;
81807;SDS011;71241;13.676;100.700;2024-03-02T14:41:05;27.83;;;20.80;;
81807;SDS011;71241;13.676;100.700;2024-03-02T14:43:35;27.95;;;21.58;;